createdAt,value
2022-10-26T00:59:20.949Z,11.68
2022-10-26T01:01:49.389Z,12.20
2022-10-26T01:04:22.951Z,10.60
2022-10-26T01:06:52.004Z,13.17
2022-10-26T01:09:20.492Z,11.63
2022-10-26T01:17:24.217Z,11.55
2022-10-26T01:20:28.024Z,12.20
2022-10-26T01:32:42.989Z,13.40
2022-10-26T01:35:33.617Z,12.48
2022-10-26T01:56:46.080Z,12.85
2022-10-26T01:59:54.417Z,13.25
2022-10-26T02:02:45.237Z,12.68
2022-10-26T02:05:30.992Z,14.25
2022-10-26T02:08:18.733Z,12.52
2022-10-26T02:10:51.808Z,15.02
2022-10-26T02:13:28.898Z,13.75
2022-10-26T02:16:04.556Z,12.48
2022-10-26T02:23:39.160Z,12.27
2022-10-26T02:26:09.817Z,12.93
2022-10-26T02:28:45.345Z,11.88
2022-10-26T02:31:14.441Z,12.73
2022-10-26T02:38:09.945Z,12.27
2022-10-26T02:40:38.083Z,12.35
2022-10-26T02:52:14.294Z,10.43
2022-10-26T02:54:54.475Z,10.70
2022-10-26T03:01:44.234Z,12.20
2022-10-26T03:04:11.440Z,11.25
2022-10-26T03:16:25.950Z,12.82
2022-10-26T03:18:53.002Z,12.23
2022-10-26T03:21:20.058Z,11.02
2022-10-26T03:36:48.485Z,13.25
2022-10-26T03:39:15.682Z,12.05
2022-10-26T03:41:42.780Z,12.25
2022-10-26T03:52:52.788Z,11.77
2022-10-26T03:55:19.993Z,11.15
2022-10-26T03:57:47.188Z,10.95
2022-10-26T04:00:16.663Z,12.20
2022-10-26T04:02:47.188Z,11.13
2022-10-26T04:32:03.958Z,12.02
2022-10-26T04:34:31.142Z,12.50
2022-10-26T04:41:00.469Z,11.95
2022-10-26T04:43:29.477Z,12.73
2022-10-26T04:45:57.184Z,13.63
2022-10-26T04:56:14.905Z,13.20
2022-10-26T04:58:41.999Z,11.98
2022-10-26T05:01:09.131Z,12.07
2022-10-26T05:04:16.307Z,13.13
2022-10-26T05:06:43.526Z,11.98
2022-10-26T05:09:10.743Z,11.82
2022-10-26T05:20:39.261Z,11.88
2022-10-26T05:23:10.613Z,11.40
2022-10-26T05:28:44.217Z,10.98
2022-10-26T05:31:11.321Z,12.13
2022-10-26T05:38:58.914Z,12.07
2022-10-26T05:41:26.167Z,11.45
2022-10-26T05:43:53.223Z,12.95
2022-10-26T05:46:37.492Z,12.93
2022-10-26T05:49:04.635Z,12.23
2022-10-26T05:51:34.296Z,11.70
2022-10-26T05:59:33.876Z,11.32
2022-10-26T06:02:33.432Z,11.23
2022-10-26T06:23:45.982Z,11.80
2022-10-26T06:26:42.362Z,12.13
2022-10-26T06:37:55.555Z,12.98
2022-10-26T06:40:24.068Z,12.68
2022-10-26T06:42:51.390Z,12.70
2022-10-26T06:45:20.755Z,13.45
2022-10-26T06:48:13.145Z,14.38
2022-10-26T06:59:51.772Z,14.23
2022-10-26T07:02:19.663Z,12.60
2022-10-26T07:04:46.906Z,12.88
2022-10-26T07:07:29.317Z,13.88
2022-10-26T07:33:04.447Z,13.40
2022-10-26T07:35:35.769Z,13.52
2022-10-26T07:39:10.717Z,13.43
2022-10-26T07:41:37.906Z,12.77
2022-10-26T07:44:05.609Z,12.30
2022-10-26T07:46:32.822Z,12.10
2022-10-26T07:48:59.874Z,12.35
2022-10-26T07:51:33.468Z,13.27
2022-10-26T07:54:00.694Z,14.35
2022-10-26T07:56:28.868Z,14.10
2022-10-26T08:00:01.545Z,12.88
2022-10-26T08:02:32.043Z,14.38
2022-10-26T08:04:59.220Z,13.80
2022-10-26T08:07:44.697Z,12.93
2022-10-26T08:10:12.489Z,13.25
2022-10-26T08:21:36.143Z,13.27
2022-10-26T08:24:06.855Z,11.38
2022-10-26T08:27:15.104Z,13.07
2022-10-26T08:29:42.642Z,10.27
2022-10-26T08:32:09.934Z,13.73
2022-10-26T08:34:38.573Z,14.38
2022-10-26T08:37:05.687Z,10.80
2022-10-26T08:39:32.942Z,12.38
2022-10-26T08:42:15.635Z,13.30
2022-10-26T08:44:47.195Z,12.88
2022-10-26T08:51:19.835Z,12.32
2022-10-26T08:55:02.711Z,11.65
2022-10-26T08:57:38.895Z,13.70
2022-10-26T09:00:24.949Z,12.65
2022-10-26T09:02:53.451Z,13.63
2022-10-26T09:10:08.514Z,13.43
2022-10-26T09:12:59.868Z,13.65
2022-10-26T09:24:32.092Z,11.77
2022-10-26T09:27:27.234Z,11.65
2022-10-26T09:29:59.970Z,9.40
2022-10-26T09:32:35.065Z,10.77
2022-10-26T09:35:13.981Z,9.57
2022-10-26T09:37:48.066Z,9.88
2022-10-26T09:43:20.992Z,7.45
2022-10-26T09:46:07.577Z,8.57
2022-10-26T09:48:50.181Z,9.38
2022-10-26T09:55:42.124Z,7.85
2022-10-26T09:58:25.538Z,6.03
2022-10-26T10:01:36.823Z,6.38
2022-10-26T10:04:26.427Z,5.10
2022-10-26T10:07:25.885Z,5.60
2022-10-26T10:10:19.906Z,5.28
2022-10-26T10:17:21.615Z,4.97
2022-10-26T10:19:49.458Z,5.15
2022-10-26T10:29:30.249Z,6.10
2022-10-26T10:32:40.569Z,6.00
2022-10-26T10:35:25.675Z,5.95
2022-10-26T10:37:59.683Z,5.75
2022-10-26T10:40:30.927Z,10.05
2022-10-26T10:43:13.546Z,5.43
2022-10-26T10:45:41.382Z,5.15
2022-10-26T10:48:13.677Z,5.88
2022-10-26T10:51:00.953Z,4.82
2022-10-26T10:53:49.382Z,4.63
2022-10-26T10:56:41.832Z,4.80
2022-10-26T10:59:48.182Z,6.45
2022-10-26T11:02:46.552Z,4.78
2022-10-26T11:05:39.560Z,4.72
2022-10-26T11:08:29.794Z,4.88
2022-10-26T11:11:05.299Z,4.40
2022-10-26T11:13:39.164Z,4.47
2022-10-26T11:16:16.725Z,4.25
2022-10-26T11:18:50.617Z,3.70
2022-10-26T11:21:26.271Z,4.00
2022-10-26T11:24:00.471Z,3.42
2022-10-26T11:29:35.031Z,3.72
2022-10-26T11:32:22.497Z,3.40
2022-10-26T11:35:11.685Z,3.50
2022-10-26T11:41:47.477Z,3.85
2022-10-26T11:45:38.647Z,3.72
2022-10-26T11:48:28.602Z,3.40
2022-10-26T11:51:30.196Z,3.83
2022-10-26T11:54:07.718Z,3.45
2022-10-26T11:56:49.812Z,3.70
2022-10-26T11:59:23.012Z,4.07
2022-10-26T12:05:57.586Z,3.90
2022-10-26T12:08:42.059Z,3.50
2022-10-26T12:14:00.494Z,3.78
2022-10-26T12:16:42.706Z,3.40
2022-10-26T12:19:23.247Z,2.95
2022-10-26T12:21:51.747Z,3.10
2022-10-26T12:24:36.947Z,3.55
2022-10-26T12:27:06.232Z,3.30
2022-10-26T12:29:43.032Z,3.28
2022-10-26T12:32:28.960Z,3.08
2022-10-26T12:36:02.683Z,2.90
2022-10-26T12:38:33.787Z,3.05
2022-10-26T12:41:23.311Z,3.10
2022-10-26T12:43:50.702Z,3.00
2022-10-26T13:00:05.403Z,3.08
2022-10-26T13:03:10.388Z,3.10
2022-10-26T13:09:45.089Z,3.28
2022-10-26T13:12:39.603Z,3.67
2022-10-26T13:15:27.520Z,2.60
2022-10-26T13:18:09.524Z,2.92
2022-10-26T13:20:52.179Z,2.40
2022-10-26T13:23:27.632Z,2.50
2022-10-26T13:26:17.416Z,2.30
2022-10-26T13:28:47.822Z,2.63
2022-10-26T13:31:37.597Z,2.28
2022-10-26T13:36:51.832Z,2.67
2022-10-26T13:39:27.659Z,2.20
2022-10-26T13:41:56.712Z,2.75
2022-10-26T13:45:26.708Z,2.70
2022-10-26T13:48:14.998Z,2.95
2022-10-26T13:50:55.242Z,2.55
2022-10-26T13:53:58.197Z,3.20
2022-10-26T13:56:34.137Z,3.05
2022-10-26T13:59:13.694Z,2.75
2022-10-26T14:02:07.684Z,2.75
2022-10-26T14:04:35.194Z,3.03
2022-10-26T14:12:37.693Z,3.22
2022-10-26T14:15:09.550Z,3.50
2022-10-26T14:20:52.555Z,3.30
2022-10-26T14:23:27.518Z,3.15
2022-10-26T14:27:01.572Z,2.90
2022-10-26T14:29:33.211Z,3.72
2022-10-26T14:32:01.520Z,3.55
2022-10-26T14:34:29.214Z,3.53
2022-10-26T14:37:02.059Z,3.60
2022-10-26T14:39:29.161Z,3.60
2022-10-26T14:41:57.405Z,3.30
2022-10-26T14:49:22.860Z,3.33
2022-10-26T14:51:56.798Z,3.50
2022-10-26T14:54:27.669Z,3.67
2022-10-26T14:56:57.068Z,3.22
2022-10-26T15:04:03.060Z,3.08
2022-10-26T15:06:38.441Z,3.60
2022-10-26T15:09:55.723Z,3.47
2022-10-26T15:12:33.865Z,3.33
2022-10-26T15:16:08.492Z,3.97
2022-10-26T15:18:39.521Z,3.47
2022-10-26T15:21:24.570Z,3.53
2022-10-26T15:23:54.961Z,3.28
2022-10-26T15:30:28.075Z,3.20
2022-10-26T15:33:22.303Z,3.50
2022-10-26T15:35:49.785Z,2.83
2022-10-26T15:38:17.065Z,3.70
2022-10-26T15:40:44.653Z,3.17
2022-10-26T15:43:12.642Z,3.88
2022-10-26T15:49:31.903Z,3.85
2022-10-26T15:51:59.378Z,4.10
2022-10-26T15:54:26.532Z,4.35
2022-10-26T15:56:53.736Z,4.25
2022-10-26T15:59:46.043Z,4.03
2022-10-26T16:02:17.519Z,5.32
2022-10-26T16:07:51.159Z,11.18
2022-10-26T16:10:22.689Z,9.30
2022-10-26T16:13:13.821Z,10.35
2022-10-26T16:15:41.658Z,9.23
2022-10-26T16:18:08.865Z,8.75
2022-10-26T16:21:44.093Z,7.03
2022-10-26T16:24:11.353Z,6.82
2022-10-26T16:26:38.455Z,6.95
2022-10-26T16:29:06.171Z,6.28
2022-10-26T16:31:47.231Z,6.60
2022-10-26T16:34:40.801Z,6.57
2022-10-26T16:37:10.892Z,6.32
2022-10-26T16:39:44.083Z,6.05
2022-10-26T16:42:11.356Z,6.18
2022-10-26T16:44:41.789Z,6.45
2022-10-26T16:48:00.432Z,6.43
2022-10-26T16:50:35.493Z,6.47
2022-10-26T16:54:16.640Z,6.88
2022-10-26T16:56:43.873Z,6.85
2022-10-26T16:59:11.454Z,7.63
2022-10-26T17:06:10.108Z,11.75
2022-10-26T17:08:38.210Z,12.32
2022-10-26T17:12:10.749Z,12.05
2022-10-26T17:14:38.697Z,11.70
2022-10-26T17:25:38.543Z,8.93
2022-10-26T17:32:39.786Z,10.27
2022-10-26T17:35:07.646Z,11.15
2022-10-26T17:40:53.921Z,10.65
2022-10-26T17:43:21.747Z,11.80
2022-10-26T17:55:01.779Z,16.67
2022-10-26T17:57:33.200Z,15.52
2022-10-26T18:08:49.740Z,16.13
2022-10-26T18:25:25.394Z,16.02
2022-10-26T18:27:53.854Z,14.00
2022-10-26T18:30:22.207Z,15.13
2022-10-26T18:38:13.767Z,16.42
2022-10-26T18:40:41.120Z,17.92
2022-10-26T18:43:08.455Z,18.63
2022-10-26T18:49:42.429Z,19.63
2022-10-26T18:52:16.279Z,19.75
2022-10-26T18:54:43.484Z,21.50
2022-10-26T18:57:10.674Z,22.98
2022-10-26T19:04:07.031Z,21.40
2022-10-26T19:06:37.655Z,20.55
2022-10-26T19:27:39.687Z,18.05
2022-10-26T19:30:07.568Z,17.00
2022-10-26T19:32:36.618Z,17.52
2022-10-26T19:40:01.628Z,15.73
2022-10-26T19:42:28.830Z,16.38
2022-10-26T19:44:56.018Z,16.25
2022-10-26T19:51:48.510Z,16.75
2022-10-26T19:54:16.007Z,18.73
2022-10-26T19:56:43.327Z,17.83
2022-10-26T20:08:19.928Z,16.67
2022-10-26T20:10:47.338Z,16.17
2022-10-26T20:13:15.402Z,16.67
2022-10-26T20:30:18.382Z,15.48
2022-10-26T20:32:45.854Z,15.52
2022-10-26T20:35:13.040Z,16.48
2022-10-26T20:38:39.716Z,15.82
2022-10-26T20:41:12.265Z,17.92
2022-10-26T20:44:25.982Z,17.20
2022-10-26T20:46:54.557Z,17.83
2022-10-26T20:50:32.414Z,16.98
2022-10-26T20:53:02.576Z,17.52
2022-10-26T21:08:38.196Z,18.50
2022-10-26T21:11:06.024Z,18.67
2022-10-26T21:13:33.486Z,18.25
2022-10-26T21:20:28.038Z,20.15
2022-10-26T21:22:55.484Z,22.02
2022-10-26T21:25:22.815Z,19.67
2022-10-26T21:32:33.530Z,21.38
2022-10-26T21:35:00.909Z,21.67
2022-10-26T21:37:28.411Z,21.63
2022-10-26T21:54:12.617Z,22.67
2022-10-26T21:56:42.649Z,21.80
2022-10-26T21:59:09.819Z,22.20
2022-10-26T22:02:50.477Z,19.58
2022-10-26T22:05:20.277Z,19.70
2022-10-26T22:07:47.612Z,18.80
2022-10-26T22:10:15.083Z,19.10
2022-10-26T22:12:42.244Z,20.23
2022-10-26T22:32:47.988Z,20.98
2022-10-26T22:35:29.129Z,20.00
2022-10-26T22:38:24.547Z,21.63
2022-10-26T22:40:56.001Z,23.67
2022-10-26T22:56:32.180Z,21.35
2022-10-26T22:59:00.438Z,22.98
2022-10-26T23:05:09.074Z,25.90
2022-10-26T23:07:36.402Z,25.17
2022-10-26T23:10:04.895Z,28.13
2022-10-26T23:12:32.033Z,28.13
2022-10-26T23:23:41.970Z,23.20
2022-10-26T23:26:15.427Z,22.92
2022-10-26T23:29:39.366Z,23.13
2022-10-26T23:32:07.423Z,22.67
2022-10-26T23:34:34.584Z,22.67
2022-10-26T23:41:00.640Z,20.55
2022-10-26T23:43:28.558Z,22.55
2022-10-26T23:49:55.068Z,22.98
2022-10-26T23:52:22.264Z,22.33
